createdAt,value
2018-07-08T00:00:13.206Z,929.88
2018-07-08T00:01:13.258Z,929.92
2018-07-08T00:02:13.276Z,929.93
2018-07-08T00:03:13.339Z,929.94
2018-07-08T00:04:13.369Z,929.91
2018-07-08T00:05:13.423Z,929.95
2018-07-08T00:06:13.495Z,929.95
2018-07-08T00:07:13.508Z,929.96
2018-07-08T00:08:13.565Z,929.96
2018-07-08T00:09:13.613Z,929.94
2018-07-08T00:10:13.698Z,929.98
2018-07-08T00:11:13.706Z,929.92
2018-07-08T00:12:13.741Z,929.92
2018-07-08T00:13:13.790Z,929.92
2018-07-08T00:14:13.818Z,929.86
2018-07-08T00:15:13.930Z,929.92
2018-07-08T00:16:13.934Z,929.90
2018-07-08T00:17:14.011Z,929.92
2018-07-08T00:18:13.998Z,929.94
2018-07-08T00:19:14.056Z,929.91
2018-07-08T00:20:14.121Z,929.86
2018-07-08T00:21:14.158Z,929.87
2018-07-08T00:22:14.205Z,929.88
2018-07-08T00:23:14.238Z,929.89
2018-07-08T00:24:14.284Z,929.86
2018-07-08T00:25:14.335Z,929.86
2018-07-08T00:26:14.373Z,929.85
2018-07-08T00:27:14.415Z,929.86
2018-07-08T00:28:14.482Z,929.84
2018-07-08T00:29:14.522Z,929.80
2018-07-08T00:30:14.547Z,929.82
2018-07-08T00:31:14.587Z,929.81
2018-07-08T00:32:14.644Z,929.85
2018-07-08T00:33:14.721Z,929.84
2018-07-08T00:34:14.734Z,929.83
2018-07-08T00:35:14.789Z,929.85
2018-07-08T00:36:14.824Z,929.83
2018-07-08T00:37:14.860Z,929.87
2018-07-08T00:38:14.909Z,929.86
2018-07-08T00:39:14.976Z,929.82
2018-07-08T00:40:15.002Z,929.86
2018-07-08T00:41:15.042Z,929.86
2018-07-08T00:42:15.081Z,929.85
2018-07-08T00:43:15.132Z,929.88
2018-07-08T00:44:15.200Z,929.90
2018-07-08T00:45:15.222Z,929.93
2018-07-08T00:46:15.290Z,929.91
2018-07-08T00:47:15.319Z,929.91
2018-07-08T00:48:15.368Z,929.89
2018-07-08T00:49:15.390Z,929.92
2018-07-08T00:50:15.450Z,929.89
2018-07-08T00:51:15.468Z,929.92
2018-07-08T00:52:15.554Z,929.91
2018-07-08T00:53:15.569Z,929.92
2018-07-08T00:54:15.626Z,929.91
2018-07-08T00:55:15.662Z,929.98
2018-07-08T00:56:15.734Z,929.99
2018-07-08T00:57:15.781Z,929.97
2018-07-08T00:58:15.816Z,929.97
2018-07-08T00:59:15.869Z,929.92
2018-07-08T01:00:15.894Z,929.95
2018-07-08T01:01:15.933Z,929.96
2018-07-08T01:02:15.999Z,929.98
2018-07-08T01:03:16.019Z,929.99
2018-07-08T01:04:16.090Z,929.96
2018-07-08T01:05:16.120Z,929.97
2018-07-08T01:06:16.170Z,929.96
2018-07-08T01:07:16.211Z,929.97
2018-07-08T01:08:16.263Z,929.96
2018-07-08T01:09:16.288Z,929.94
2018-07-08T01:10:16.345Z,929.94
2018-07-08T01:11:16.385Z,929.92
2018-07-08T01:12:16.631Z,929.96
2018-07-08T01:13:16.487Z,929.96
2018-07-08T01:14:16.545Z,929.97
2018-07-08T01:15:16.605Z,929.96
2018-07-08T01:16:16.610Z,929.96
2018-07-08T01:17:16.640Z,929.92
2018-07-08T01:18:16.711Z,929.95
2018-07-08T01:19:16.770Z,929.92
2018-07-08T01:20:16.797Z,929.90
2018-07-08T01:21:16.839Z,929.86
2018-07-08T01:22:16.886Z,929.90
2018-07-08T01:23:16.909Z,929.89
2018-07-08T01:24:16.977Z,929.89
2018-07-08T01:25:17.036Z,929.87
2018-07-08T01:26:17.062Z,929.87
2018-07-08T01:27:17.142Z,929.90
2018-07-08T01:28:17.164Z,929.86
2018-07-08T01:29:17.239Z,929.89
2018-07-08T01:30:17.257Z,929.85
2018-07-08T01:31:17.291Z,929.86
2018-07-08T01:32:17.334Z,929.84
2018-07-08T01:33:17.358Z,929.83
2018-07-08T01:34:17.415Z,929.87
2018-07-08T01:35:17.458Z,929.84
2018-07-08T01:36:17.504Z,929.83
2018-07-08T01:37:17.574Z,929.79
2018-07-08T01:38:17.569Z,929.76
2018-07-08T01:39:17.634Z,929.81
2018-07-08T01:40:17.670Z,929.78
2018-07-08T01:41:17.751Z,929.79
2018-07-08T01:42:17.767Z,929.78
2018-07-08T01:43:18.076Z,929.84
2018-07-08T01:44:17.885Z,929.89
2018-07-08T01:45:17.926Z,929.88
2018-07-08T01:46:17.956Z,929.83
2018-07-08T01:47:17.998Z,929.82
2018-07-08T01:48:18.052Z,929.85
2018-07-08T01:49:18.078Z,929.86
2018-07-08T01:50:18.117Z,929.86
2018-07-08T01:51:18.167Z,929.86
2018-07-08T01:52:18.200Z,929.86
2018-07-08T01:53:18.269Z,929.84
2018-07-08T01:54:18.290Z,929.82
2018-07-08T01:55:18.354Z,929.84
2018-07-08T01:56:18.377Z,929.77
2018-07-08T01:57:18.437Z,929.75
2018-07-08T01:58:18.456Z,929.75
2018-07-08T01:59:18.540Z,929.72
2018-07-08T02:00:18.567Z,929.73
2018-07-08T02:01:18.606Z,929.76
2018-07-08T02:02:18.671Z,929.74
2018-07-08T02:03:18.694Z,929.78
2018-07-08T02:04:18.754Z,929.75
2018-07-08T02:05:18.772Z,929.77
2018-07-08T02:06:19.018Z,929.75
2018-07-08T02:07:18.861Z,929.72
2018-07-08T02:08:18.924Z,929.69
2018-07-08T02:09:18.976Z,929.73
2018-07-08T02:10:19.026Z,929.70
2018-07-08T02:11:19.060Z,929.70
2018-07-08T02:12:19.357Z,929.72
2018-07-08T02:13:19.183Z,929.72
2018-07-08T02:14:19.176Z,929.71
2018-07-08T02:15:19.231Z,929.71
2018-07-08T02:16:19.295Z,929.74
2018-07-08T02:17:19.517Z,929.78
2018-07-08T02:18:19.351Z,929.80
2018-07-08T02:19:19.413Z,929.79
2018-07-08T02:20:19.440Z,929.82
2018-07-08T02:21:19.520Z,929.80
2018-07-08T02:22:19.530Z,929.78
2018-07-08T02:23:19.863Z,929.77
2018-07-08T02:24:19.643Z,929.78
2018-07-08T02:25:19.676Z,929.81
2018-07-08T02:26:19.722Z,929.78
2018-07-08T02:27:19.765Z,929.82
2018-07-08T02:28:19.799Z,929.83
2018-07-08T02:29:20.052Z,929.81
2018-07-08T02:30:19.895Z,929.76
2018-07-08T02:31:19.928Z,929.72
2018-07-08T02:32:19.999Z,929.71
2018-07-08T02:33:20.041Z,929.70
2018-07-08T02:34:20.076Z,929.68
2018-07-08T02:35:20.322Z,929.66
2018-07-08T02:36:20.145Z,929.67
2018-07-08T02:37:20.195Z,929.69
2018-07-08T02:38:20.253Z,929.76
2018-07-08T02:39:20.292Z,929.74
2018-07-08T02:40:20.323Z,929.75
2018-07-08T02:41:20.369Z,929.78
2018-07-08T02:42:20.436Z,929.76
2018-07-08T02:43:20.466Z,929.75
2018-07-08T02:44:20.512Z,929.69
2018-07-08T02:45:20.555Z,929.69
2018-07-08T02:46:20.605Z,929.69
2018-07-08T02:47:20.624Z,929.68
2018-07-08T02:48:20.690Z,929.67
2018-07-08T02:49:20.750Z,929.72
2018-07-08T02:50:20.794Z,929.67
2018-07-08T02:51:20.814Z,929.65
2018-07-08T02:52:20.855Z,929.62
2018-07-08T02:53:20.914Z,929.61
2018-07-08T02:54:20.957Z,929.62
2018-07-08T02:55:21.006Z,929.55
2018-07-08T02:56:21.019Z,929.54
2018-07-08T02:57:21.081Z,929.53
2018-07-08T02:58:21.100Z,929.52
2018-07-08T02:59:21.175Z,929.53
2018-07-08T03:00:21.203Z,929.55
2018-07-08T03:01:21.287Z,929.56
2018-07-08T03:02:21.316Z,929.59
2018-07-08T03:03:21.374Z,929.63
2018-07-08T03:04:21.388Z,929.64
2018-07-08T03:05:21.459Z,929.63
2018-07-08T03:06:21.495Z,929.65
2018-07-08T03:07:21.531Z,929.62
2018-07-08T03:08:21.803Z,929.65
2018-07-08T03:09:21.590Z,929.62
2018-07-08T03:10:21.666Z,929.60
2018-07-08T03:11:21.692Z,929.58
2018-07-08T03:12:21.768Z,929.59
2018-07-08T03:13:21.790Z,929.63
2018-07-08T03:14:21.833Z,929.58
2018-07-08T03:15:21.870Z,929.61
2018-07-08T03:16:21.965Z,929.58
2018-07-08T03:17:21.959Z,929.59
2018-07-08T03:18:22.051Z,929.60
2018-07-08T03:19:22.055Z,929.57
2018-07-08T03:20:22.085Z,929.54
2018-07-08T03:21:22.157Z,929.63
2018-07-08T03:22:22.195Z,929.60
2018-07-08T03:23:22.228Z,929.61
2018-07-08T03:24:22.288Z,929.62
2018-07-08T03:25:22.294Z,929.67
2018-07-08T03:26:22.359Z,929.67
2018-07-08T03:27:22.394Z,929.66
2018-07-08T03:28:22.437Z,929.61
2018-07-08T03:29:22.506Z,929.62
2018-07-08T03:30:22.534Z,929.57
2018-07-08T03:31:22.630Z,929.60
2018-07-08T03:32:22.637Z,929.61
2018-07-08T03:33:22.684Z,929.58
2018-07-08T03:34:22.716Z,929.51
2018-07-08T03:35:22.773Z,929.55
2018-07-08T03:36:22.841Z,929.57
2018-07-08T03:37:22.876Z,929.52
2018-07-08T03:38:22.891Z,929.57
2018-07-08T03:39:22.966Z,929.58
2018-07-08T03:40:22.972Z,929.61
2018-07-08T03:41:22.999Z,929.53
2018-07-08T03:42:23.051Z,929.55
2018-07-08T03:43:23.126Z,929.48
2018-07-08T03:44:23.201Z,929.46
2018-07-08T03:45:23.203Z,929.50
2018-07-08T03:46:23.243Z,929.48
2018-07-08T03:47:23.291Z,929.52
2018-07-08T03:48:23.323Z,929.45
2018-07-08T03:49:23.378Z,929.47
2018-07-08T03:50:23.394Z,929.50
2018-07-08T03:51:23.443Z,929.50
2018-07-08T03:52:23.549Z,929.50
2018-07-08T03:53:23.545Z,929.52
2018-07-08T03:54:23.569Z,929.49
2018-07-08T03:55:23.681Z,929.46
2018-07-08T03:56:23.672Z,929.47
2018-07-08T03:57:23.720Z,929.46
2018-07-08T03:58:23.767Z,929.46
2018-07-08T03:59:23.803Z,929.46
2018-07-08T04:00:23.855Z,929.47
2018-07-08T04:01:23.895Z,929.42
2018-07-08T04:02:23.943Z,929.42
2018-07-08T04:03:23.976Z,929.44
2018-07-08T04:04:24.032Z,929.42
2018-07-08T04:05:24.128Z,929.43
2018-07-08T04:06:24.105Z,929.42
2018-07-08T04:07:24.171Z,929.42
2018-07-08T04:08:24.380Z,929.39
2018-07-08T04:09:24.245Z,929.36
2018-07-08T04:10:24.292Z,929.36
2018-07-08T04:11:24.315Z,929.33
2018-07-08T04:12:24.361Z,929.33
2018-07-08T04:13:24.421Z,929.30
2018-07-08T04:14:24.478Z,929.25
2018-07-08T04:15:24.514Z,929.29
2018-07-08T04:16:24.569Z,929.27
2018-07-08T04:17:24.593Z,929.24
2018-07-08T04:18:24.654Z,929.29
2018-07-08T04:19:24.926Z,929.26
2018-07-08T04:20:24.726Z,929.25
2018-07-08T04:21:24.766Z,929.18
2018-07-08T04:22:24.835Z,929.20
2018-07-08T04:23:24.897Z,929.18
2018-07-08T04:24:24.922Z,929.17
2018-07-08T04:25:24.931Z,929.15
2018-07-08T04:26:24.991Z,929.15
2018-07-08T04:27:25.022Z,929.13
2018-07-08T04:28:25.098Z,929.16
2018-07-08T04:29:25.119Z,929.17
2018-07-08T04:30:25.400Z,929.18
2018-07-08T04:31:25.186Z,929.16
2018-07-08T04:32:25.236Z,929.17
2018-07-08T04:33:25.281Z,929.17
2018-07-08T04:34:25.372Z,929.15
2018-07-08T04:35:25.394Z,929.15
2018-07-08T04:36:25.428Z,929.15
2018-07-08T04:37:25.456Z,929.16
2018-07-08T04:38:25.520Z,929.14
2018-07-08T04:39:25.561Z,929.10
2018-07-08T04:40:25.613Z,929.11
2018-07-08T04:41:25.629Z,929.15
2018-07-08T04:42:25.873Z,929.20
2018-07-08T04:43:25.730Z,929.15
2018-07-08T04:44:25.771Z,929.14
2018-07-08T04:45:25.825Z,929.16
2018-07-08T04:46:25.868Z,929.09
2018-07-08T04:47:25.900Z,929.11
2018-07-08T04:48:25.941Z,929.12
2018-07-08T04:49:25.977Z,929.10
2018-07-08T04:50:26.032Z,929.09
2018-07-08T04:51:26.067Z,929.09
2018-07-08T04:52:26.125Z,929.08
2018-07-08T04:53:26.170Z,929.10
2018-07-08T04:54:26.448Z,929.08
2018-07-08T04:55:26.246Z,929.05
2018-07-08T04:56:26.293Z,929.05
2018-07-08T04:57:26.318Z,929.00
2018-07-08T04:58:26.372Z,929.01
2018-07-08T04:59:26.416Z,929.02
2018-07-08T05:00:26.450Z,929.01
2018-07-08T05:01:26.547Z,928.98
2018-07-08T05:02:26.571Z,929.00
2018-07-08T05:03:26.599Z,928.97
2018-07-08T05:04:26.652Z,929.02
2018-07-08T05:05:26.676Z,929.03
2018-07-08T05:06:26.785Z,929.04
2018-07-08T05:07:26.781Z,928.99
2018-07-08T05:08:26.809Z,928.99
2018-07-08T05:09:26.889Z,929.07
2018-07-08T05:10:26.882Z,929.06
2018-07-08T05:11:26.941Z,929.03
2018-07-08T05:12:26.978Z,929.03
2018-07-08T05:13:27.043Z,929.07
2018-07-08T05:14:27.064Z,929.06
2018-07-08T05:15:27.107Z,929.09
2018-07-08T05:16:27.135Z,929.04
2018-07-08T05:17:27.215Z,929.08
2018-07-08T05:18:27.236Z,929.08
2018-07-08T05:19:27.288Z,929.01
2018-07-08T05:20:27.374Z,928.97
2018-07-08T05:21:27.385Z,929.09
2018-07-08T05:22:27.413Z,929.06
2018-07-08T05:23:27.441Z,929.01
2018-07-08T05:24:27.556Z,928.95
2018-07-08T05:25:27.517Z,929.03
2018-07-08T05:26:27.830Z,929.04
2018-07-08T05:27:27.632Z,929.01
2018-07-08T05:28:27.668Z,928.93
2018-07-08T05:29:27.707Z,928.97
2018-07-08T05:30:27.781Z,928.98
2018-07-08T05:31:27.845Z,928.96
2018-07-08T05:32:27.855Z,928.98
2018-07-08T05:33:27.938Z,928.92
2018-07-08T05:34:27.927Z,928.93
2018-07-08T05:35:27.961Z,928.93
2018-07-08T05:36:27.995Z,928.95
2018-07-08T05:37:28.055Z,928.93
2018-07-08T05:38:28.114Z,928.93
2018-07-08T05:39:28.151Z,928.95
2018-07-08T05:40:28.169Z,928.96
2018-07-08T05:41:28.252Z,928.96
2018-07-08T05:42:28.484Z,928.95
2018-07-08T05:43:28.322Z,928.91
2018-07-08T05:44:28.374Z,928.95
2018-07-08T05:45:28.412Z,928.96
2018-07-08T05:46:28.461Z,928.95
2018-07-08T05:47:28.469Z,928.92
2018-07-08T05:48:28.528Z,928.95
2018-07-08T05:49:28.576Z,928.96
2018-07-08T05:50:28.640Z,928.96
2018-07-08T05:51:28.668Z,928.97
2018-07-08T05:52:28.684Z,928.97
2018-07-08T05:53:28.950Z,928.96
2018-07-08T05:54:28.797Z,928.96
2018-07-08T05:55:28.829Z,928.94
2018-07-08T05:56:28.903Z,928.89
2018-07-08T05:57:28.932Z,928.88
2018-07-08T05:58:28.967Z,928.91
2018-07-08T05:59:29.018Z,928.91
2018-07-08T06:00:29.059Z,928.90
2018-07-08T06:01:29.077Z,928.91
2018-07-08T06:02:29.154Z,928.92
2018-07-08T06:03:29.186Z,928.85
2018-07-08T06:04:29.460Z,928.86
2018-07-08T06:05:29.236Z,928.85
2018-07-08T06:06:29.301Z,928.87
2018-07-08T06:07:29.357Z,928.82
2018-07-08T06:08:29.394Z,928.84
2018-07-08T06:09:29.436Z,928.85
2018-07-08T06:10:29.526Z,928.81
2018-07-08T06:11:29.533Z,928.83
2018-07-08T06:12:29.577Z,928.89
2018-07-08T06:13:29.594Z,928.85
2018-07-08T06:14:29.641Z,928.85
2018-07-08T06:15:29.719Z,928.89
2018-07-08T06:16:29.785Z,928.88
2018-07-08T06:17:29.821Z,928.85
2018-07-08T06:18:29.841Z,928.86
2018-07-08T06:19:30.077Z,928.84
2018-07-08T06:20:29.909Z,928.87
2018-07-08T06:21:29.986Z,928.87
2018-07-08T06:22:29.988Z,928.85
2018-07-08T06:23:30.047Z,928.88
2018-07-08T06:24:30.078Z,928.85
2018-07-08T06:25:30.170Z,928.86
2018-07-08T06:26:30.182Z,928.86
2018-07-08T06:27:30.201Z,928.83
2018-07-08T06:28:30.267Z,928.85
2018-07-08T06:29:30.281Z,928.83
2018-07-08T06:30:30.554Z,928.89
2018-07-08T06:31:30.395Z,928.87
2018-07-08T06:32:30.421Z,928.87
2018-07-08T06:33:30.474Z,928.86
2018-07-08T06:34:30.497Z,928.84
2018-07-08T06:35:30.566Z,928.84
2018-07-08T06:36:30.640Z,928.83
2018-07-08T06:37:30.632Z,928.85
2018-07-08T06:38:30.676Z,928.84
2018-07-08T06:39:30.717Z,928.80
2018-07-08T06:40:30.766Z,928.83
2018-07-08T06:41:30.998Z,928.79
2018-07-08T06:42:30.888Z,928.80
2018-07-08T06:43:30.884Z,928.81
2018-07-08T06:44:30.972Z,928.81
2018-07-08T06:45:30.993Z,928.80
2018-07-08T06:46:31.072Z,928.75
2018-07-08T06:47:31.074Z,928.79
2018-07-08T06:48:31.127Z,928.76
2018-07-08T06:49:31.159Z,928.76
2018-07-08T06:50:31.238Z,928.78
2018-07-08T06:51:31.290Z,928.70
2018-07-08T06:52:31.472Z,928.73
2018-07-08T06:53:31.298Z,928.73
2018-07-08T06:54:31.352Z,928.72
2018-07-08T06:55:31.421Z,928.72
2018-07-08T06:56:31.435Z,928.71
2018-07-08T06:57:31.478Z,928.72
2018-07-08T06:58:31.533Z,928.72
2018-07-08T06:59:31.583Z,928.63
2018-07-08T07:00:31.594Z,928.67
2018-07-08T07:01:31.646Z,928.61
2018-07-08T07:02:31.716Z,928.63
2018-07-08T07:03:31.746Z,928.63
2018-07-08T07:04:31.988Z,928.60
2018-07-08T07:05:31.839Z,928.62
2018-07-08T07:06:31.882Z,928.58
2018-07-08T07:07:31.900Z,928.62
2018-07-08T07:08:31.939Z,928.55
2018-07-08T07:09:32.050Z,928.59
2018-07-08T07:10:32.032Z,928.59
2018-07-08T07:11:32.086Z,928.59
2018-07-08T07:12:32.131Z,928.56
2018-07-08T07:13:32.161Z,928.60
2018-07-08T07:14:32.226Z,928.58
2018-07-08T07:15:32.253Z,928.60
2018-07-08T07:16:32.489Z,928.61
2018-07-08T07:17:32.437Z,928.65
2018-07-08T07:18:32.390Z,928.60
2018-07-08T07:19:32.411Z,928.61
2018-07-08T07:20:32.478Z,928.64
2018-07-08T07:21:32.510Z,928.65
2018-07-08T07:22:32.557Z,928.67
2018-07-08T07:23:32.619Z,928.66
2018-07-08T07:24:32.646Z,928.66
2018-07-08T07:25:32.662Z,928.65
2018-07-08T07:26:32.735Z,928.64
2018-07-08T07:27:32.766Z,928.65
2018-07-08T07:28:32.864Z,928.66
2018-07-08T07:29:33.080Z,928.65
2018-07-08T07:30:32.909Z,928.65
2018-07-08T07:31:32.917Z,928.65
2018-07-08T07:32:32.962Z,928.68
2018-07-08T07:33:33.017Z,928.68
2018-07-08T07:34:33.081Z,928.67
2018-07-08T07:35:33.114Z,928.62
2018-07-08T07:36:33.130Z,928.66
2018-07-08T07:37:33.215Z,928.72
2018-07-08T07:38:33.238Z,928.69
2018-07-08T07:39:33.264Z,928.69
2018-07-08T07:40:33.522Z,928.72
2018-07-08T07:41:33.363Z,928.70
2018-07-08T07:42:33.390Z,928.66
2018-07-08T07:43:33.438Z,928.65
2018-07-08T07:44:33.483Z,928.59
2018-07-08T07:45:33.561Z,928.58
2018-07-08T07:46:33.563Z,928.59
2018-07-08T07:47:33.620Z,928.59
2018-07-08T07:48:33.665Z,928.58
2018-07-08T07:49:33.699Z,928.64
2018-07-08T07:50:33.747Z,928.59
2018-07-08T07:51:34.001Z,928.58
2018-07-08T07:52:33.821Z,928.54
2018-07-08T07:53:33.876Z,928.57
2018-07-08T07:54:33.926Z,928.54
2018-07-08T07:55:33.969Z,928.57
2018-07-08T07:56:34.021Z,928.54
2018-07-08T07:57:34.018Z,928.55
2018-07-08T07:58:34.091Z,928.53
2018-07-08T07:59:34.123Z,928.53
2018-07-08T08:00:34.190Z,928.52
2018-07-08T08:01:34.216Z,928.55
2018-07-08T08:02:34.450Z,928.54
2018-07-08T08:03:34.295Z,928.55
2018-07-08T08:04:34.345Z,928.55
2018-07-08T08:05:34.382Z,928.58
2018-07-08T08:06:34.438Z,928.57
2018-07-08T08:07:34.462Z,928.59
2018-07-08T08:08:34.554Z,928.54
2018-07-08T08:09:34.563Z,928.59
2018-07-08T08:10:34.597Z,928.59
2018-07-08T08:11:34.639Z,928.60
2018-07-08T08:12:34.686Z,928.58
2018-07-08T08:13:34.722Z,928.60
2018-07-08T08:14:34.748Z,928.56
2018-07-08T08:15:34.806Z,928.58
2018-07-08T08:16:34.864Z,928.61
2018-07-08T08:17:35.094Z,928.62
2018-07-08T08:18:34.932Z,928.60
2018-07-08T08:19:34.983Z,928.63
2018-07-08T08:20:35.002Z,928.65
2018-07-08T08:21:35.061Z,928.66
2018-07-08T08:22:35.099Z,928.63
2018-07-08T08:23:35.127Z,928.63
2018-07-08T08:24:35.221Z,928.62
2018-07-08T08:25:35.237Z,928.60
2018-07-08T08:26:35.304Z,928.63
2018-07-08T08:27:35.337Z,928.61
2018-07-08T08:28:35.369Z,928.64
2018-07-08T08:29:35.405Z,928.68
2018-07-08T08:30:35.437Z,928.69
2018-07-08T08:31:35.471Z,928.70
2018-07-08T08:32:35.531Z,928.70
2018-07-08T08:33:35.557Z,928.69
2018-07-08T08:34:35.619Z,928.68
2018-07-08T08:35:35.923Z,928.68
2018-07-08T08:36:35.717Z,928.74
2018-07-08T08:37:35.770Z,928.70
2018-07-08T08:38:35.788Z,928.74
2018-07-08T08:39:35.837Z,928.74
2018-07-08T08:40:35.870Z,928.77
2018-07-08T08:41:35.963Z,928.78
2018-07-08T08:42:35.963Z,928.79
2018-07-08T08:43:36.019Z,928.79
2018-07-08T08:44:36.036Z,928.77
2018-07-08T08:45:36.099Z,928.83
2018-07-08T08:46:36.126Z,928.84
2018-07-08T08:47:36.370Z,928.84
2018-07-08T08:48:36.266Z,928.86
2018-07-08T08:49:36.260Z,928.88
2018-07-08T08:50:36.348Z,928.91
2018-07-08T08:51:36.348Z,928.89
2018-07-08T08:52:36.493Z,928.91
2018-07-08T08:53:36.426Z,928.91
2018-07-08T08:54:36.520Z,928.97
2018-07-08T08:55:36.502Z,928.98
2018-07-08T08:56:36.560Z,928.98
2018-07-08T08:57:36.577Z,928.93
2018-07-08T08:58:36.635Z,928.94
2018-07-08T08:59:36.878Z,928.97
2018-07-08T09:00:36.701Z,928.98
2018-07-08T09:01:36.757Z,928.95
2018-07-08T09:02:36.815Z,928.97
2018-07-08T09:03:36.861Z,928.95
2018-07-08T09:04:36.872Z,929.00
2018-07-08T09:05:36.909Z,928.98
2018-07-08T09:06:36.970Z,928.98
2018-07-08T09:07:37.017Z,929.06
2018-07-08T09:08:37.065Z,929.04
2018-07-08T09:09:37.092Z,929.06
2018-07-08T09:10:37.193Z,929.06
2018-07-08T09:11:37.185Z,929.07
2018-07-08T09:12:37.274Z,929.08
2018-07-08T09:13:37.269Z,929.09
2018-07-08T09:14:37.513Z,929.10
2018-07-08T09:15:37.349Z,929.11
2018-07-08T09:16:37.387Z,929.12
2018-07-08T09:17:37.451Z,929.09
2018-07-08T09:18:37.481Z,929.11
2018-07-08T09:19:37.537Z,929.13
2018-07-08T09:20:37.560Z,929.13
2018-07-08T09:21:37.644Z,929.16
2018-07-08T09:22:37.636Z,929.11
2018-07-08T09:23:37.687Z,929.14
2018-07-08T09:24:37.739Z,929.17
2018-07-08T09:25:37.782Z,929.17
2018-07-08T09:26:38.004Z,929.19
2018-07-08T09:27:37.839Z,929.18
2018-07-08T09:28:37.907Z,929.19
2018-07-08T09:29:37.918Z,929.14
2018-07-08T09:30:37.982Z,929.14
2018-07-08T09:31:38.034Z,929.15
2018-07-08T09:32:38.061Z,929.16
2018-07-08T09:33:38.149Z,929.17
2018-07-08T09:34:38.155Z,929.17
2018-07-08T09:35:38.201Z,929.17
2018-07-08T09:36:38.235Z,929.20
2018-07-08T09:37:38.262Z,929.19
2018-07-08T09:38:38.368Z,929.17
2018-07-08T09:39:38.356Z,929.18
2018-07-08T09:40:38.392Z,929.17
2018-07-08T09:41:38.441Z,929.22
2018-07-08T09:42:38.495Z,929.20
2018-07-08T09:43:38.523Z,929.19
2018-07-08T09:44:38.590Z,929.23
2018-07-08T09:45:38.643Z,929.30
2018-07-08T09:46:38.647Z,929.26
2018-07-08T09:47:38.716Z,929.25
2018-07-08T09:48:38.916Z,929.25
2018-07-08T09:49:38.795Z,929.25
2018-07-08T09:50:38.823Z,929.28
2018-07-08T09:51:38.855Z,929.31
2018-07-08T09:52:38.957Z,929.29
2018-07-08T09:53:38.962Z,929.32
2018-07-08T09:54:39.001Z,929.33
2018-07-08T09:55:39.070Z,929.33
2018-07-08T09:56:39.087Z,929.35
2018-07-08T09:57:39.159Z,929.36
2018-07-08T09:58:39.151Z,929.36
2018-07-08T09:59:39.183Z,929.40
2018-07-08T10:00:39.461Z,929.38
2018-07-08T10:01:39.262Z,929.39
2018-07-08T10:02:39.316Z,929.43
2018-07-08T10:03:39.353Z,929.43
2018-07-08T10:04:39.598Z,929.43
2018-07-08T10:05:39.477Z,929.44
2018-07-08T10:06:39.496Z,929.45
2018-07-08T10:07:39.530Z,929.47
2018-07-08T10:08:39.632Z,929.41
2018-07-08T10:09:39.623Z,929.47
2018-07-08T10:10:39.681Z,929.47
2018-07-08T10:11:39.703Z,929.47
2018-07-08T10:12:39.941Z,929.54
2018-07-08T10:13:39.872Z,929.53
2018-07-08T10:14:39.825Z,929.53
2018-07-08T10:15:39.866Z,929.54
2018-07-08T10:16:39.928Z,929.56
2018-07-08T10:17:39.983Z,929.52
2018-07-08T10:18:39.988Z,929.57
2018-07-08T10:19:40.128Z,929.54
2018-07-08T10:20:40.077Z,929.56
2018-07-08T10:21:40.105Z,929.56
2018-07-08T10:22:40.166Z,929.58
2018-07-08T10:23:40.219Z,929.60
2018-07-08T10:24:40.461Z,929.57
2018-07-08T10:25:40.308Z,929.60
2018-07-08T10:26:40.354Z,929.61
2018-07-08T10:27:40.371Z,929.63
2018-07-08T10:28:40.416Z,929.64
2018-07-08T10:29:40.447Z,929.67
2018-07-08T10:30:40.497Z,929.69
2018-07-08T10:31:40.536Z,929.69
2018-07-08T10:32:40.598Z,929.70
2018-07-08T10:33:40.601Z,929.74
2018-07-08T10:34:40.689Z,929.72
2018-07-08T10:35:40.716Z,929.72
2018-07-08T10:36:40.824Z,929.70
2018-07-08T10:37:40.805Z,929.74
2018-07-08T10:38:40.863Z,929.77
2018-07-08T10:39:40.897Z,929.82
2018-07-08T10:40:40.925Z,929.81
2018-07-08T10:41:40.970Z,929.86
2018-07-08T10:42:41.055Z,929.86
2018-07-08T10:43:41.066Z,929.91
2018-07-08T10:44:41.112Z,929.90
2018-07-08T10:45:41.180Z,929.89
2018-07-08T10:46:41.402Z,929.92
2018-07-08T10:47:41.232Z,929.96
2018-07-08T10:48:41.273Z,929.96
2018-07-08T10:49:41.332Z,929.94
2018-07-08T10:50:41.355Z,929.95
2018-07-08T10:51:41.407Z,929.96
2018-07-08T10:52:41.482Z,929.96
2018-07-08T10:53:41.507Z,929.95
2018-07-08T10:54:41.574Z,929.95
2018-07-08T10:55:41.599Z,930.02
2018-07-08T10:56:41.689Z,930.01
2018-07-08T10:57:41.674Z,930.01
2018-07-08T10:58:41.956Z,930.01
2018-07-08T10:59:41.805Z,930.03
2018-07-08T11:00:41.817Z,930.03
2018-07-08T11:01:41.882Z,930.02
2018-07-08T11:02:41.889Z,930.01
2018-07-08T11:03:41.947Z,930.04
2018-07-08T11:04:42.010Z,930.03
2018-07-08T11:05:42.045Z,930.11
2018-07-08T11:06:42.117Z,930.10
2018-07-08T11:07:42.161Z,930.16
2018-07-08T11:08:42.211Z,930.15
2018-07-08T11:09:42.496Z,930.14
2018-07-08T11:10:42.306Z,930.13
2018-07-08T11:11:42.348Z,930.16
2018-07-08T11:12:42.394Z,930.17
2018-07-08T11:13:42.423Z,930.19
2018-07-08T11:14:42.539Z,930.21
2018-07-08T11:15:42.554Z,930.24
2018-07-08T11:16:42.632Z,930.22
2018-07-08T11:17:42.636Z,930.20
2018-07-08T11:18:42.693Z,930.20
2018-07-08T11:19:42.712Z,930.25
2018-07-08T11:20:42.839Z,930.21
2018-07-08T11:21:43.011Z,930.20
2018-07-08T11:22:42.876Z,930.25
2018-07-08T11:23:42.922Z,930.28
2018-07-08T11:24:42.984Z,930.27
2018-07-08T11:25:43.028Z,930.26
2018-07-08T11:26:43.065Z,930.25
2018-07-08T11:27:43.133Z,930.27
2018-07-08T11:28:43.187Z,930.26
2018-07-08T11:29:43.224Z,930.29
2018-07-08T11:30:43.323Z,930.25
2018-07-08T11:31:43.314Z,930.27
2018-07-08T11:32:43.639Z,930.28
2018-07-08T11:33:43.426Z,930.24
2018-07-08T11:34:43.524Z,930.28
2018-07-08T11:35:43.544Z,930.31
2018-07-08T11:36:43.598Z,930.33
2018-07-08T11:37:43.629Z,930.33
2018-07-08T11:38:43.687Z,930.37
2018-07-08T11:39:43.722Z,930.33
2018-07-08T11:40:43.786Z,930.33
2018-07-08T11:41:43.835Z,930.37
2018-07-08T11:42:43.876Z,930.36
2018-07-08T11:43:43.958Z,930.39
2018-07-08T11:44:43.961Z,930.42
2018-07-08T11:45:44.039Z,930.44
2018-07-08T11:46:44.072Z,930.42
2018-07-08T11:47:44.115Z,930.44
2018-07-08T11:48:44.241Z,930.45
2018-07-08T11:49:44.254Z,930.46
2018-07-08T11:50:44.293Z,930.45
2018-07-08T11:51:44.336Z,930.40
2018-07-08T11:52:44.405Z,930.37
2018-07-08T11:53:44.452Z,930.43
2018-07-08T11:54:44.532Z,930.46
2018-07-08T11:55:44.529Z,930.45
2018-07-08T11:56:44.602Z,930.47
2018-07-08T11:57:44.840Z,930.47
2018-07-08T11:58:44.724Z,930.45
2018-07-08T11:59:44.764Z,930.45
2018-07-08T12:00:44.800Z,930.47
2018-07-08T12:01:44.939Z,930.50
2018-07-08T12:02:44.928Z,930.49
2018-07-08T12:03:44.963Z,930.47
2018-07-08T12:04:45.044Z,930.48
2018-07-08T12:05:45.103Z,930.46
2018-07-08T12:06:45.146Z,930.52
2018-07-08T12:07:45.169Z,930.48
2018-07-08T12:08:45.229Z,930.51
2018-07-08T12:09:45.301Z,930.47
2018-07-08T12:10:45.332Z,930.46
2018-07-08T12:11:45.404Z,930.45
2018-07-08T12:12:45.488Z,930.47
2018-07-08T12:13:45.698Z,930.48
2018-07-08T12:14:45.588Z,930.50
2018-07-08T12:15:45.615Z,930.47
2018-07-08T12:16:45.646Z,930.49
2018-07-08T12:17:45.687Z,930.52
2018-07-08T12:18:45.765Z,930.52
2018-07-08T12:19:45.825Z,930.51
2018-07-08T12:20:45.871Z,930.50
2018-07-08T12:21:45.967Z,930.56
2018-07-08T12:22:45.980Z,930.56
2018-07-08T12:23:46.025Z,930.57
2018-07-08T12:24:46.099Z,930.59
2018-07-08T12:25:46.118Z,930.62
2018-07-08T12:26:46.203Z,930.58
2018-07-08T12:27:46.246Z,930.65
2018-07-08T12:28:46.299Z,930.62